Time,TemperatureF,DewpointF,PressureIn,WindDirection,WindDirectionDegrees,WindSpeedMPH,WindSpeedGustMPH,Humidity,HourlyPrecipIn,Conditions,Clouds,dailyrainin,SoftwareType,DateUTC
2013-08-27 00:01:00,69.2,66.5,29.82,SSW,206,0.0,0.0,91,0.05,,,0.00,WeatherCatV1.10B1784,2013-08-27 04:01:00,
2013-08-27 00:06:00,69.2,66.8,29.82,SSW,206,0.0,0.0,92,0.04,,,0.00,WeatherCatV1.10B1784,2013-08-27 04:06:00,
2013-08-27 00:11:00,69.0,66.3,29.82,SW,219,0.0,3.0,91,0.00,,,0.00,WeatherCatV1.10B1784,2013-08-27 04:11:00,
2013-08-27 00:16:00,69.0,66.6,29.82,SW,219,0.0,0.0,92,0.00,,,0.00,WeatherCatV1.10B1784,2013-08-27 04:16:00,
2013-08-27 00:21:00,68.9,66.5,29.82,SW,219,0.0,0.0,92,0.00,,,0.00,WeatherCatV1.10B1784,2013-08-27 04:21:00,
2013-08-27 00:26:00,68.9,66.5,29.82,SW,219,0.0,1.0,92,0.00,,,0.00,WeatherCatV1.10B1784,2013-08-27 04:26:00,
2013-08-27 00:31:00,68.9,66.5,29.82,South,180,0.0,5.0,92,0.00,,,0.00,WeatherCatV1.10B1784,2013-08-27 04:31:00,
2013-08-27 00:36:00,68.9,66.5,29.82,South,190,0.0,0.0,92,0.00,,,0.01,WeatherCatV1.10B1784,2013-08-27 04:36:00,
2013-08-27 00:41:00,69.0,66.6,29.82,South,190,0.0,0.0,92,0.00,,,0.01,WeatherCatV1.10B1784,2013-08-27 04:41:00,
2013-08-27 00:46:00,68.9,66.5,29.82,South,190,0.0,0.0,92,0.00,,,0.01,WeatherCatV1.10B1784,2013-08-27 04:46:00,
2013-08-27 00:51:00,68.9,66.5,29.82,South,190,0.0,0.0,92,0.00,,,0.01,WeatherCatV1.10B1784,2013-08-27 04:51:00,
2013-08-27 00:56:00,68.8,66.7,29.82,South,190,0.0,0.0,93,0.00,,,0.01,WeatherCatV1.10B1784,2013-08-27 04:56:00,
2013-08-27 01:01:00,68.7,66.6,29.81,South,190,0.0,0.0,93,0.00,,,0.02,WeatherCatV1.10B1784,2013-08-27 05:01:00,
2013-08-27 01:06:00,68.6,66.5,29.81,South,190,0.0,0.0,93,0.00,,,0.02,WeatherCatV1.10B1784,2013-08-27 05:06:00,
2013-08-27 01:11:00,68.6,66.5,29.81,South,190,0.0,0.0,93,0.00,,,0.02,WeatherCatV1.10B1784,2013-08-27 05:11:00,
2013-08-27 01:16:00,68.6,66.5,29.81,South,190,0.0,0.0,93,0.00,,,0.02,WeatherCatV1.10B1784,2013-08-27 05:16:00,
2013-08-27 01:21:00,68.5,66.4,29.81,South,190,0.0,0.0,93,0.00,,,0.02,WeatherCatV1.10B1784,2013-08-27 05:21:00,
2013-08-27 01:26:00,68.5,66.4,29.81,South,190,0.0,0.0,93,0.00,,,0.03,WeatherCatV1.10B1784,2013-08-27 05:26:00,
2013-08-27 01:31:00,68.4,66.3,29.81,South,190,0.0,0.0,93,0.00,,,0.03,WeatherCatV1.10B1784,2013-08-27 05:31:00,
2013-08-27 01:36:00,68.4,66.6,29.81,South,190,0.0,0.0,94,0.00,,,0.03,WeatherCatV1.10B1784,2013-08-27 05:36:00,
2013-08-27 01:41:00,68.3,66.5,29.81,South,190,0.0,0.0,94,0.00,,,0.03,WeatherCatV1.10B1784,2013-08-27 05:41:00,
2013-08-27 01:46:00,68.3,66.5,29.81,South,190,0.0,0.0,94,0.00,,,0.03,WeatherCatV1.10B1784,2013-08-27 05:46:00,
2013-08-27 01:51:00,68.2,66.4,29.81,South,190,0.0,0.0,94,0.00,,,0.04,WeatherCatV1.10B1784,2013-08-27 05:51:00,
2013-08-27 01:56:00,68.1,66.3,29.81,South,190,0.0,0.0,94,0.00,,,0.04,WeatherCatV1.10B1784,2013-08-27 05:56:00,
2013-08-27 02:01:00,68.1,66.3,29.81,South,190,0.0,0.0,94,0.00,,,0.04,WeatherCatV1.10B1784,2013-08-27 06:01:00,
2013-08-27 02:06:00,68.1,66.3,29.81,South,190,0.0,0.0,94,0.00,,,0.04,WeatherCatV1.10B1784,2013-08-27 06:06:00,
2013-08-27 02:11:00,68.0,66.2,29.80,South,190,0.0,0.0,94,0.00,,,0.04,WeatherCatV1.10B1784,2013-08-27 06:11:00,
2013-08-27 02:16:00,68.0,66.2,29.80,South,190,0.0,1.0,94,0.00,,,0.04,WeatherCatV1.10B1784,2013-08-27 06:16:00,
2013-08-27 02:21:00,68.0,66.2,29.80,South,190,0.0,1.0,94,0.00,,,0.04,WeatherCatV1.10B1784,2013-08-27 06:21:00,
2013-08-27 02:26:00,67.9,66.1,29.80,SSW,208,0.0,4.0,94,0.00,,,0.04,WeatherCatV1.10B1784,2013-08-27 06:26:00,
2013-08-27 02:31:00,68.0,66.2,29.79,SW,233,0.0,0.0,94,0.00,,,0.04,WeatherCatV1.10B1784,2013-08-27 06:31:00,
2013-08-27 02:36:00,68.0,66.5,29.79,SW,233,0.0,0.0,95,0.00,,,0.04,WeatherCatV1.10B1784,2013-08-27 06:36:00,
2013-08-27 02:41:00,67.9,66.1,29.79,SW,233,0.0,0.0,94,0.00,,,0.04,WeatherCatV1.10B1784,2013-08-27 06:41:00,
2013-08-27 02:46:00,67.9,66.1,29.80,SW,233,0.0,0.0,94,0.00,,,0.04,WeatherCatV1.10B1784,2013-08-27 06:46:00,
2013-08-27 02:51:00,67.9,66.1,29.79,SW,233,0.0,0.0,94,0.00,,,0.04,WeatherCatV1.10B1784,2013-08-27 06:51:00,
2013-08-27 02:56:00,68.0,66.2,29.79,SW,233,0.0,0.0,94,0.00,,,0.04,WeatherCatV1.10B1784,2013-08-27 06:56:00,
2013-08-27 03:01:00,68.0,66.2,29.79,SW,233,0.0,0.0,94,0.00,,,0.04,WeatherCatV1.10B1784,2013-08-27 07:01:00,
2013-08-27 03:06:00,68.0,66.2,29.79,SW,233,0.0,0.0,94,0.00,,,0.04,WeatherCatV1.10B1784,2013-08-27 07:06:00,
2013-08-27 03:11:00,67.9,66.1,29.79,SW,233,0.0,0.0,94,0.00,,,0.04,WeatherCatV1.10B1784,2013-08-27 07:11:00,
2013-08-27 03:16:00,67.9,66.1,29.79,SW,233,0.0,0.0,94,0.00,,,0.04,WeatherCatV1.10B1784,2013-08-27 07:16:00,
2013-08-27 03:21:00,67.9,66.1,29.79,SW,233,0.0,0.0,94,0.00,,,0.04,WeatherCatV1.10B1784,2013-08-27 07:21:00,
2013-08-27 03:26:00,67.9,66.4,29.79,SW,233,0.0,0.0,95,0.00,,,0.04,WeatherCatV1.10B1784,2013-08-27 07:26:00,
2013-08-27 03:31:00,67.8,66.3,29.79,SW,233,0.0,0.0,95,0.00,,,0.04,WeatherCatV1.10B1784,2013-08-27 07:31:00,
2013-08-27 03:36:00,67.8,66.3,29.79,SW,233,0.0,0.0,95,0.00,,,0.04,WeatherCatV1.10B1784,2013-08-27 07:36:00,
2013-08-27 03:41:00,67.8,66.3,29.79,SW,233,0.0,0.0,95,0.00,,,0.04,WeatherCatV1.10B1784,2013-08-27 07:41:00,
2013-08-27 03:46:00,67.8,66.3,29.79,SW,233,0.0,0.0,95,0.00,,,0.04,WeatherCatV1.10B1784,2013-08-27 07:46:00,
2013-08-27 03:51:00,67.8,66.3,29.79,SW,233,0.0,0.0,95,0.00,,,0.04,WeatherCatV1.10B1784,2013-08-27 07:51:00,
2013-08-27 03:56:00,67.9,66.4,29.79,SW,233,0.0,0.0,95,0.00,,,0.04,WeatherCatV1.10B1784,2013-08-27 07:56:00,
2013-08-27 04:01:00,67.8,66.3,29.78,SW,233,0.0,0.0,95,0.00,,,0.04,WeatherCatV1.10B1784,2013-08-27 08:01:00,
2013-08-27 04:06:00,67.8,66.3,29.78,SW,233,0.0,0.0,95,0.00,,,0.04,WeatherCatV1.10B1784,2013-08-27 08:06:00,
2013-08-27 04:11:00,67.9,66.4,29.78,SW,233,0.0,0.0,95,0.00,,,0.04,WeatherCatV1.10B1784,2013-08-27 08:11:00,
2013-08-27 04:16:00,67.8,66.3,29.78,SW,233,0.0,0.0,95,0.00,,,0.04,WeatherCatV1.10B1784,2013-08-27 08:16:00,
2013-08-27 04:21:00,67.8,66.3,29.78,SW,233,0.0,0.0,95,0.00,,,0.04,WeatherCatV1.10B1784,2013-08-27 08:21:00,
2013-08-27 04:26:00,67.8,66.3,29.78,SW,233,0.0,0.0,95,0.00,,,0.04,WeatherCatV1.10B1784,2013-08-27 08:26:00,
2013-08-27 04:31:00,67.8,66.3,29.78,SW,233,0.0,0.0,95,0.00,,,0.04,WeatherCatV1.10B1784,2013-08-27 08:31:00,
2013-08-27 04:36:00,67.8,66.3,29.78,SW,233,0.0,0.0,95,0.00,,,0.04,WeatherCatV1.10B1784,2013-08-27 08:36:00,
2013-08-27 04:41:00,67.7,66.2,29.79,SW,233,0.0,0.0,95,0.00,,,0.04,WeatherCatV1.10B1784,2013-08-27 08:41:00,
2013-08-27 04:46:00,67.6,66.1,29.79,SW,233,0.0,0.0,95,0.00,,,0.04,WeatherCatV1.10B1784,2013-08-27 08:46:00,
2013-08-27 04:51:00,67.6,66.1,29.79,SW,233,0.0,0.0,95,0.00,,,0.04,WeatherCatV1.10B1784,2013-08-27 08:51:00,
2013-08-27 04:56:00,67.5,66.0,29.79,SW,233,0.0,0.0,95,0.00,,,0.04,WeatherCatV1.10B1784,2013-08-27 08:56:00,
2013-08-27 05:01:00,67.5,66.0,29.79,SW,233,0.0,0.0,95,0.00,,,0.04,WeatherCatV1.10B1784,2013-08-27 09:01:00,
2013-08-27 05:06:00,67.5,66.0,29.79,SW,233,0.0,0.0,95,0.00,,,0.04,WeatherCatV1.10B1784,2013-08-27 09:06:00,
2013-08-27 05:11:00,67.5,66.0,29.79,SW,233,0.0,0.0,95,0.00,,,0.04,WeatherCatV1.10B1784,2013-08-27 09:11:00,
2013-08-27 05:16:00,67.5,66.0,29.79,SW,233,0.0,0.0,95,0.00,,,0.04,WeatherCatV1.10B1784,2013-08-27 09:16:00,
2013-08-27 05:21:00,67.5,66.0,29.79,SW,233,0.0,0.0,95,0.00,,,0.04,WeatherCatV1.10B1784,2013-08-27 09:21:00,
2013-08-27 05:26:00,67.5,66.0,29.79,SW,233,0.0,0.0,95,0.00,,,0.04,WeatherCatV1.10B1784,2013-08-27 09:26:00,
2013-08-27 05:31:00,67.4,65.9,29.79,SW,233,0.0,0.0,95,0.00,,,0.04,WeatherCatV1.10B1784,2013-08-27 09:31:00,
2013-08-27 05:36:00,67.4,65.9,29.79,SW,233,0.0,0.0,95,0.00,,,0.04,WeatherCatV1.10B1784,2013-08-27 09:36:00,
2013-08-27 05:41:00,67.5,66.0,29.79,SW,233,0.0,0.0,95,0.00,,,0.04,WeatherCatV1.10B1784,2013-08-27 09:41:00,
2013-08-27 05:46:00,67.5,66.0,29.79,SW,233,0.0,0.0,95,0.00,,,0.04,WeatherCatV1.10B1784,2013-08-27 09:46:00,
2013-08-27 05:51:00,67.5,66.0,29.80,SW,233,0.0,0.0,95,0.00,,,0.04,WeatherCatV1.10B1784,2013-08-27 09:51:00,
2013-08-27 05:56:00,67.6,66.1,29.80,SW,233,0.0,0.0,95,0.00,,,0.04,WeatherCatV1.10B1784,2013-08-27 09:56:00,
2013-08-27 06:01:00,67.6,66.1,29.80,SW,233,0.0,0.0,95,0.00,,,0.04,WeatherCatV1.10B1784,2013-08-27 10:01:00,
2013-08-27 06:06:00,67.6,66.1,29.80,SW,233,0.0,0.0,95,0.00,,,0.04,WeatherCatV1.10B1784,2013-08-27 10:06:00,
2013-08-27 06:11:00,67.7,66.2,29.80,SW,233,0.0,0.0,95,0.00,,,0.04,WeatherCatV1.10B1784,2013-08-27 10:11:00,
2013-08-27 06:16:00,67.7,66.2,29.80,SW,233,0.0,0.0,95,0.00,,,0.04,WeatherCatV1.10B1784,2013-08-27 10:16:00,
2013-08-27 06:21:00,67.8,66.3,29.80,SW,233,0.0,0.0,95,0.00,,,0.04,WeatherCatV1.10B1784,2013-08-27 10:21:00,
2013-08-27 06:26:00,67.8,66.3,29.80,SW,233,0.0,0.0,95,0.00,,,0.04,WeatherCatV1.10B1784,2013-08-27 10:26:00,
2013-08-27 06:31:00,67.8,66.3,29.81,SW,233,0.0,0.0,95,0.00,,,0.04,WeatherCatV1.10B1784,2013-08-27 10:31:00,
2013-08-27 06:36:00,67.8,66.3,29.80,SW,233,0.0,0.0,95,0.00,,,0.04,WeatherCatV1.10B1784,2013-08-27 10:36:00,
2013-08-27 06:41:00,67.7,66.2,29.81,SW,233,0.0,0.0,95,0.00,,,0.04,WeatherCatV1.10B1784,2013-08-27 10:41:00,
2013-08-27 06:46:00,67.7,66.2,29.81,SW,233,0.0,0.0,95,0.00,,,0.04,WeatherCatV1.10B1784,2013-08-27 10:46:00,
2013-08-27 06:51:00,67.8,66.3,29.81,SW,233,0.0,0.0,95,0.00,,,0.04,WeatherCatV1.10B1784,2013-08-27 10:51:00,
2013-08-27 06:56:00,67.8,66.3,29.81,SW,233,0.0,0.0,95,0.00,,,0.04,WeatherCatV1.10B1784,2013-08-27 10:56:00,
2013-08-27 07:01:00,67.8,66.3,29.81,SW,233,0.0,0.0,95,0.00,,,0.04,WeatherCatV1.10B1784,2013-08-27 11:01:00,
2013-08-27 07:06:00,67.9,66.4,29.81,SW,233,0.0,0.0,95,0.00,,,0.04,WeatherCatV1.10B1784,2013-08-27 11:06:00,
2013-08-27 07:11:00,67.9,66.4,29.81,SW,233,0.0,0.0,95,0.00,,,0.04,WeatherCatV1.10B1784,2013-08-27 11:11:00,
2013-08-27 07:16:00,68.0,66.5,29.81,SW,233,0.0,0.0,95,0.00,,,0.04,WeatherCatV1.10B1784,2013-08-27 11:16:00,
2013-08-27 07:21:00,67.9,66.4,29.81,SW,233,0.0,0.0,95,0.00,,,0.04,WeatherCatV1.10B1784,2013-08-27 11:21:00,
2013-08-27 07:26:00,68.0,66.5,29.81,SW,233,0.0,0.0,95,0.00,,,0.04,WeatherCatV1.10B1784,2013-08-27 11:26:00,
2013-08-27 07:31:00,68.0,66.5,29.81,SW,233,0.0,0.0,95,0.00,,,0.04,WeatherCatV1.10B1784,2013-08-27 11:31:00,
2013-08-27 07:36:00,68.0,66.5,29.81,SW,233,0.0,0.0,95,0.00,,,0.04,WeatherCatV1.10B1784,2013-08-27 11:36:00,
2013-08-27 07:41:00,68.2,66.7,29.81,SW,233,0.0,0.0,95,0.00,,,0.04,WeatherCatV1.10B1784,2013-08-27 11:41:00,
2013-08-27 07:46:00,68.3,67.1,29.81,SW,233,0.0,0.0,96,0.00,,,0.04,WeatherCatV1.10B1784,2013-08-27 11:46:00,
2013-08-27 07:51:00,68.5,67.3,29.82,SW,233,0.0,0.0,96,0.00,,,0.04,WeatherCatV1.10B1784,2013-08-27 11:51:00,
2013-08-27 07:56:00,68.6,67.1,29.82,SW,233,0.0,0.0,95,0.00,,,0.04,WeatherCatV1.10B1784,2013-08-27 11:56:00,
2013-08-27 08:01:00,68.7,67.2,29.81,SW,233,0.0,0.0,95,0.00,,,0.04,WeatherCatV1.10B1784,2013-08-27 12:01:00,
2013-08-27 08:06:00,68.8,67.3,29.81,SW,233,0.0,0.0,95,0.00,,,0.04,WeatherCatV1.10B1784,2013-08-27 12:06:00,
2013-08-27 08:11:00,68.9,67.7,29.81,SW,233,0.0,0.0,96,0.00,,,0.04,WeatherCatV1.10B1784,2013-08-27 12:11:00,
2013-08-27 08:16:00,69.0,67.8,29.81,SW,233,0.0,0.0,96,0.00,,,0.04,WeatherCatV1.10B1784,2013-08-27 12:16:00,
2013-08-27 08:21:00,69.1,67.9,29.81,SW,233,0.0,0.0,96,0.00,,,0.04,WeatherCatV1.10B1784,2013-08-27 12:21:00,
2013-08-27 08:26:00,69.1,67.6,29.81,SW,233,0.0,0.0,95,0.00,,,0.04,WeatherCatV1.10B1784,2013-08-27 12:26:00,
2013-08-27 08:31:00,69.3,67.8,29.81,SW,233,0.0,0.0,95,0.00,,,0.04,WeatherCatV1.10B1784,2013-08-27 12:31:00,
2013-08-27 08:36:00,69.5,68.0,29.81,SW,233,0.0,0.0,95,0.00,,,0.04,WeatherCatV1.10B1784,2013-08-27 12:36:00,
2013-08-27 08:41:00,69.8,68.3,29.81,SW,233,0.0,0.0,95,0.00,,,0.04,WeatherCatV1.10B1784,2013-08-27 12:41:00,
2013-08-27 08:46:00,70.0,68.5,29.81,SW,233,0.0,0.0,95,0.00,,,0.04,WeatherCatV1.10B1784,2013-08-27 12:46:00,
2013-08-27 08:51:00,70.5,69.0,29.81,SW,235,0.0,3.0,95,0.00,,,0.04,WeatherCatV1.10B1784,2013-08-27 12:51:00,
2013-08-27 08:56:00,70.7,68.9,29.81,SW,235,0.0,0.0,94,0.00,,,0.04,WeatherCatV1.10B1784,2013-08-27 12:56:00,
2013-08-27 09:01:00,70.9,68.8,29.81,SW,235,0.0,0.0,93,0.00,,,0.04,WeatherCatV1.10B1784,2013-08-27 13:01:00,
2013-08-27 09:06:00,71.1,69.0,29.81,SW,235,0.0,0.0,93,0.00,,,0.04,WeatherCatV1.10B1784,2013-08-27 13:06:00,
2013-08-27 09:11:00,71.2,68.8,29.81,SW,235,0.0,0.0,92,0.00,,,0.04,WeatherCatV1.10B1784,2013-08-27 13:11:00,
2013-08-27 09:16:00,71.4,68.9,29.81,SW,235,0.0,0.0,92,0.00,,,0.04,WeatherCatV1.10B1784,2013-08-27 13:16:00,
2013-08-27 09:21:00,71.7,69.2,29.81,SW,233,0.0,0.0,92,0.00,,,0.04,WeatherCatV1.10B1784,2013-08-27 13:21:00,
2013-08-27 09:26:00,72.2,69.7,29.81,SW,233,0.0,0.0,92,0.00,,,0.04,WeatherCatV1.10B1784,2013-08-27 13:26:00,
2013-08-27 09:31:00,72.8,70.0,29.81,ESE,118,0.0,0.0,91,0.00,,,0.04,WeatherCatV1.10B1784,2013-08-27 13:31:00,
2013-08-27 09:36:00,73.4,70.6,29.82,ESE,118,0.0,0.0,91,0.00,,,0.04,WeatherCatV1.10B1784,2013-08-27 13:36:00,
2013-08-27 09:41:00,73.8,70.3,29.82,ESE,118,0.0,1.0,89,0.00,,,0.04,WeatherCatV1.10B1784,2013-08-27 13:41:00,
2013-08-27 09:46:00,74.0,70.2,29.82,ESE,118,0.0,0.0,88,0.00,,,0.04,WeatherCatV1.10B1784,2013-08-27 13:46:00,
2013-08-27 09:51:00,74.2,69.7,29.82,ESE,118,0.0,1.0,86,0.00,,,0.04,WeatherCatV1.10B1784,2013-08-27 13:51:00,
2013-08-27 09:56:00,74.6,70.1,29.82,ESE,118,0.0,0.0,86,0.00,,,0.04,WeatherCatV1.10B1784,2013-08-27 13:56:00,
2013-08-27 10:01:00,74.6,70.1,29.82,ESE,118,0.0,0.0,86,0.00,,,0.04,WeatherCatV1.10B1784,2013-08-27 14:01:00,
2013-08-27 10:06:00,74.6,70.1,29.82,ESE,118,0.0,0.0,86,0.00,,,0.04,WeatherCatV1.10B1784,2013-08-27 14:06:00,
2013-08-27 10:11:00,74.7,70.2,29.82,ESE,118,0.0,0.0,86,0.00,,,0.04,WeatherCatV1.10B1784,2013-08-27 14:11:00,
2013-08-27 10:16:00,75.0,69.8,29.82,ESE,106,1.0,4.0,84,0.00,,,0.04,WeatherCatV1.10B1784,2013-08-27 14:16:00,
2013-08-27 10:21:00,75.3,69.8,29.82,East,94,0.0,2.0,83,0.00,,,0.04,WeatherCatV1.10B1784,2013-08-27 14:21:00,
2013-08-27 10:27:00,75.4,70.2,29.82,East,94,0.0,0.0,84,0.00,,,0.04,WeatherCatV1.10B1784,2013-08-27 14:27:00,
2013-08-27 10:32:00,75.3,69.8,29.82,East,92,0.0,0.0,83,0.00,,,0.04,WeatherCatV1.10B1784,2013-08-27 14:32:00,
2013-08-27 10:37:00,75.7,70.5,29.82,East,92,0.0,1.0,84,0.00,,,0.04,WeatherCatV1.10B1784,2013-08-27 14:37:00,
2013-08-27 10:42:00,76.0,70.1,29.83,East,94,0.0,4.0,82,0.00,,,0.04,WeatherCatV1.10B1784,2013-08-27 14:42:00,
2013-08-27 10:47:00,76.3,71.1,29.83,East,94,0.0,0.0,84,0.00,,,0.04,WeatherCatV1.10B1784,2013-08-27 14:47:00,
2013-08-27 10:52:00,76.5,70.9,29.83,East,94,0.0,1.0,83,0.00,,,0.04,WeatherCatV1.10B1784,2013-08-27 14:52:00,
2013-08-27 10:57:00,76.8,70.9,29.83,East,94,0.0,0.0,82,0.00,,,0.04,WeatherCatV1.10B1784,2013-08-27 14:57:00,
2013-08-27 11:02:00,77.0,70.0,29.83,East,92,0.0,0.0,79,0.00,,,0.04,WeatherCatV1.10B1784,2013-08-27 15:02:00,
2013-08-27 11:07:00,77.1,70.4,29.83,East,92,0.0,1.0,80,0.00,,,0.04,WeatherCatV1.10B1784,2013-08-27 15:07:00,
2013-08-27 11:12:00,77.1,70.1,29.83,East,92,0.0,0.0,79,0.00,,,0.04,WeatherCatV1.10B1784,2013-08-27 15:12:00,
2013-08-27 11:17:00,77.2,70.5,29.83,East,92,0.0,1.0,80,0.00,,,0.04,WeatherCatV1.10B1784,2013-08-27 15:17:00,
2013-08-27 11:22:00,77.6,70.9,29.83,NE,41,2.0,2.0,80,0.00,,,0.04,WeatherCatV1.10B1784,2013-08-27 15:22:00,
2013-08-27 11:27:00,77.7,69.9,29.82,East,84,0.0,1.0,77,0.00,,,0.04,WeatherCatV1.10B1784,2013-08-27 15:27:00,
2013-08-27 11:32:00,78.5,70.3,29.82,SE,128,6.0,6.0,76,0.00,,,0.04,WeatherCatV1.10B1784,2013-08-27 15:32:00,
2013-08-27 11:37:00,79.5,70.5,29.82,SE,132,3.0,7.0,74,0.00,,,0.04,WeatherCatV1.10B1784,2013-08-27 15:37:00,
2013-08-27 11:42:00,80.1,70.6,29.82,SE,144,0.0,1.0,73,0.00,,,0.04,WeatherCatV1.10B1784,2013-08-27 15:42:00,
2013-08-27 11:47:00,79.3,70.7,29.82,SE,144,0.0,0.0,75,0.00,,,0.04,WeatherCatV1.10B1784,2013-08-27 15:47:00,
2013-08-27 11:52:00,79.0,70.4,29.82,SE,143,0.0,0.0,75,0.00,,,0.04,WeatherCatV1.10B1784,2013-08-27 15:52:00,
2013-08-27 11:57:00,79.4,69.6,29.82,SE,143,0.0,0.0,72,0.00,,,0.04,WeatherCatV1.10B1784,2013-08-27 15:57:00,
2013-08-27 12:02:00,79.3,70.7,29.82,SE,143,0.0,1.0,75,0.00,,,0.04,WeatherCatV1.10B1784,2013-08-27 16:02:00,
2013-08-27 12:07:00,78.9,70.3,29.82,SE,140,0.0,0.0,75,0.00,,,0.04,WeatherCatV1.10B1784,2013-08-27 16:07:00,
2013-08-27 12:12:00,79.1,69.7,29.82,SE,140,0.0,3.0,73,0.00,,,0.04,WeatherCatV1.10B1784,2013-08-27 16:12:00,
2013-08-27 12:17:00,79.8,69.5,29.82,SE,132,0.0,4.0,71,0.00,,,0.04,WeatherCatV1.10B1784,2013-08-27 16:17:00,
2013-08-27 12:22:00,80.8,69.7,29.82,North,350,0.0,5.0,69,0.00,,,0.04,WeatherCatV1.10B1784,2013-08-27 16:22:00,
2013-08-27 12:27:00,80.9,70.6,29.82,North,350,0.0,0.0,71,0.00,,,0.04,WeatherCatV1.10B1784,2013-08-27 16:27:00,
2013-08-27 12:32:00,80.0,70.5,29.82,NNE,30,0.0,0.0,73,0.00,,,0.04,WeatherCatV1.10B1784,2013-08-27 16:32:00,
2013-08-27 12:37:00,79.9,69.6,29.82,NNE,31,0.0,5.0,71,0.00,,,0.04,WeatherCatV1.10B1784,2013-08-27 16:37:00,
2013-08-27 12:42:00,80.3,69.2,29.82,NE,53,0.0,2.0,69,0.00,,,0.04,WeatherCatV1.10B1784,2013-08-27 16:42:00,
2013-08-27 12:47:00,80.6,69.9,29.82,NE,53,0.0,0.0,70,0.00,,,0.04,WeatherCatV1.10B1784,2013-08-27 16:47:00,
2013-08-27 12:52:00,80.7,68.7,29.82,NE,55,0.0,1.0,67,0.00,,,0.04,WeatherCatV1.10B1784,2013-08-27 16:52:00,
2013-08-27 12:57:00,80.6,70.7,29.82,NE,55,0.0,1.0,72,0.00,,,0.04,WeatherCatV1.10B1784,2013-08-27 16:57:00,
2013-08-27 13:02:00,79.8,69.5,29.82,NE,55,0.0,0.0,71,0.00,,,0.04,WeatherCatV1.10B1784,2013-08-27 17:02:00,
2013-08-27 13:07:00,79.7,69.9,29.82,NE,55,0.0,0.0,72,0.00,,,0.04,WeatherCatV1.10B1784,2013-08-27 17:07:00,
2013-08-27 13:12:00,80.3,69.2,29.82,NE,55,0.0,0.0,69,0.00,,,0.04,WeatherCatV1.10B1784,2013-08-27 17:12:00,
2013-08-27 13:17:00,81.3,70.1,29.82,ENE,65,0.0,0.0,69,0.00,,,0.04,WeatherCatV1.10B1784,2013-08-27 17:17:00,
2013-08-27 13:22:00,81.6,70.0,29.82,ENE,65,0.0,0.0,68,0.00,,,0.04,WeatherCatV1.10B1784,2013-08-27 17:22:00,
2013-08-27 13:27:00,81.0,69.4,29.82,ENE,65,0.0,1.0,68,0.00,,,0.04,WeatherCatV1.10B1784,2013-08-27 17:27:00,
2013-08-27 13:32:00,80.8,70.5,29.82,ENE,63,4.0,4.0,71,0.00,,,0.04,WeatherCatV1.10B1784,2013-08-27 17:32:00,
2013-08-27 13:37:00,81.4,71.9,29.82,East,84,0.0,1.0,73,0.00,,,0.04,WeatherCatV1.10B1784,2013-08-27 17:37:00,
2013-08-27 13:42:00,81.5,71.2,29.82,ENE,67,0.0,1.0,71,0.00,,,0.04,WeatherCatV1.10B1784,2013-08-27 17:42:00,
2013-08-27 13:47:00,82.3,70.2,29.82,ENE,69,0.0,1.0,67,0.00,,,0.04,WeatherCatV1.10B1784,2013-08-27 17:47:00,
2013-08-27 13:52:00,82.8,69.3,29.81,NNW,342,2.0,2.0,64,0.00,,,0.04,WeatherCatV1.10B1784,2013-08-27 17:52:00,
2013-08-27 13:57:00,83.1,69.2,29.81,NNW,335,0.0,1.0,63,0.00,,,0.04,WeatherCatV1.10B1784,2013-08-27 17:57:00,
2013-08-27 14:02:00,83.6,68.7,29.81,North,0,0.0,2.0,61,0.00,,,0.04,WeatherCatV1.10B1784,2013-08-27 18:02:00,
2013-08-27 14:07:00,83.8,68.9,29.81,SE,129,0.0,1.0,61,0.00,,,0.04,WeatherCatV1.10B1784,2013-08-27 18:07:00,
2013-08-27 14:12:00,84.2,69.7,29.81,SE,129,0.0,1.0,62,0.00,,,0.04,WeatherCatV1.10B1784,2013-08-27 18:12:00,
2013-08-27 14:17:00,84.9,70.4,29.81,ESE,123,5.0,5.0,62,0.00,,,0.04,WeatherCatV1.10B1784,2013-08-27 18:17:00,
2013-08-27 14:22:00,85.1,70.6,29.81,SE,139,0.0,9.0,62,0.00,,,0.04,WeatherCatV1.10B1784,2013-08-27 18:22:00,
2013-08-27 14:27:00,85.2,71.2,29.80,SE,139,0.0,1.0,63,0.00,,,0.04,WeatherCatV1.10B1784,2013-08-27 18:27:00,
2013-08-27 14:32:00,85.5,71.0,29.80,SE,144,1.0,2.0,62,0.00,,,0.04,WeatherCatV1.10B1784,2013-08-27 18:32:00,
2013-08-27 14:37:00,85.0,69.5,29.80,SE,139,0.0,0.0,60,0.00,,,0.04,WeatherCatV1.10B1784,2013-08-27 18:37:00,
2013-08-27 14:42:00,85.0,69.5,29.80,ESE,103,2.0,3.0,60,0.00,,,0.04,WeatherCatV1.10B1784,2013-08-27 18:42:00,
2013-08-27 14:47:00,84.5,70.5,29.80,East,84,0.0,0.0,63,0.00,,,0.04,WeatherCatV1.10B1784,2013-08-27 18:47:00,
2013-08-27 14:52:00,84.5,70.0,29.80,East,85,0.0,1.0,62,0.00,,,0.04,WeatherCatV1.10B1784,2013-08-27 18:52:00,
2013-08-27 14:57:00,84.4,68.5,29.80,East,85,0.0,0.0,59,0.00,,,0.04,WeatherCatV1.10B1784,2013-08-27 18:57:00,
2013-08-27 15:02:00,84.5,67.6,29.80,East,85,0.0,0.0,57,0.00,,,0.04,WeatherCatV1.10B1784,2013-08-27 19:02:00,
2013-08-27 15:07:00,84.6,69.6,29.80,East,85,0.0,0.0,61,0.00,,,0.04,WeatherCatV1.10B1784,2013-08-27 19:07:00,
2013-08-27 15:12:00,84.7,68.8,29.80,East,85,0.0,0.0,59,0.00,,,0.04,WeatherCatV1.10B1784,2013-08-27 19:12:00,
2013-08-27 15:17:00,84.9,68.4,29.79,East,85,0.0,0.0,58,0.00,,,0.04,WeatherCatV1.10B1784,2013-08-27 19:17:00,
2013-08-27 15:22:00,85.3,69.8,29.79,East,85,0.0,1.0,60,0.00,,,0.04,WeatherCatV1.10B1784,2013-08-27 19:22:00,
2013-08-27 15:27:00,85.5,68.5,29.79,East,85,0.0,0.0,57,0.00,,,0.04,WeatherCatV1.10B1784,2013-08-27 19:27:00,
2013-08-27 15:32:00,86.2,69.1,29.79,East,85,1.0,1.0,57,0.00,,,0.04,WeatherCatV1.10B1784,2013-08-27 19:32:00,
2013-08-27 15:37:00,86.7,68.6,29.79,East,85,0.0,0.0,55,0.00,,,0.04,WeatherCatV1.10B1784,2013-08-27 19:37:00,
2013-08-27 15:42:00,87.2,69.0,29.79,East,85,0.0,0.0,55,0.00,,,0.04,WeatherCatV1.10B1784,2013-08-27 19:42:00,
2013-08-27 15:47:00,88.3,69.0,29.79,East,85,0.0,0.0,53,0.00,,,0.04,WeatherCatV1.10B1784,2013-08-27 19:47:00,
2013-08-27 15:52:00,88.3,67.8,29.79,East,85,0.0,0.0,51,0.00,,,0.04,WeatherCatV1.10B1784,2013-08-27 19:52:00,
2013-08-27 15:57:00,88.1,67.7,29.78,East,85,0.0,1.0,51,0.00,,,0.04,WeatherCatV1.10B1784,2013-08-27 19:57:00,
2013-08-27 16:02:00,88.4,68.5,29.78,East,85,0.0,1.0,52,0.00,,,0.04,WeatherCatV1.10B1784,2013-08-27 20:02:00,
2013-08-27 16:07:00,87.3,68.6,29.78,East,85,0.0,2.0,54,0.00,,,0.04,WeatherCatV1.10B1784,2013-08-27 20:07:00,
2013-08-27 16:12:00,87.4,67.6,29.78,East,85,3.0,3.0,52,0.00,,,0.04,WeatherCatV1.10B1784,2013-08-27 20:12:00,
2013-08-27 16:17:00,87.5,68.2,29.78,East,95,0.0,5.0,53,0.00,,,0.04,WeatherCatV1.10B1784,2013-08-27 20:17:00,
2013-08-27 16:22:00,87.3,68.0,29.78,ESE,120,1.0,1.0,53,0.00,,,0.04,WeatherCatV1.10B1784,2013-08-27 20:22:00,
2013-08-27 16:27:00,87.3,66.9,29.78,ESE,121,0.0,4.0,51,0.00,,,0.04,WeatherCatV1.10B1784,2013-08-27 20:27:00,
2013-08-27 16:32:00,87.3,68.0,29.78,ESE,118,0.0,0.0,53,0.00,,,0.04,WeatherCatV1.10B1784,2013-08-27 20:32:00,
2013-08-27 16:37:00,86.4,67.2,29.78,ESE,118,0.0,0.0,53,0.00,,,0.04,WeatherCatV1.10B1784,2013-08-27 20:37:00,
2013-08-27 16:42:00,86.0,67.4,29.78,ESE,118,0.0,1.0,54,0.00,,,0.04,WeatherCatV1.10B1784,2013-08-27 20:42:00,
2013-08-27 16:47:00,86.0,66.8,29.78,ESE,118,0.0,0.0,53,0.00,,,0.04,WeatherCatV1.10B1784,2013-08-27 20:47:00,
2013-08-27 16:52:00,86.5,67.8,29.78,ESE,118,0.0,0.0,54,0.00,,,0.04,WeatherCatV1.10B1784,2013-08-27 20:52:00,
2013-08-27 16:57:00,86.4,68.3,29.78,ESE,118,0.0,0.0,55,0.00,,,0.04,WeatherCatV1.10B1784,2013-08-27 20:57:00,
2013-08-27 17:02:00,85.8,67.7,29.78,ESE,114,0.0,1.0,55,0.00,,,0.04,WeatherCatV1.10B1784,2013-08-27 21:02:00,
2013-08-27 17:07:00,85.2,66.6,29.78,ESE,114,0.0,0.0,54,0.00,,,0.04,WeatherCatV1.10B1784,2013-08-27 21:07:00,
2013-08-27 17:12:00,85.3,67.3,29.78,ESE,114,0.0,1.0,55,0.00,,,0.04,WeatherCatV1.10B1784,2013-08-27 21:12:00,
2013-08-27 17:17:00,85.2,67.2,29.78,ESE,114,0.0,0.0,55,0.00,,,0.04,WeatherCatV1.10B1784,2013-08-27 21:17:00,
2013-08-27 17:22:00,85.3,68.3,29.78,ESE,114,0.0,0.0,57,0.00,,,0.04,WeatherCatV1.10B1784,2013-08-27 21:22:00,
2013-08-27 17:27:00,85.6,66.5,29.78,ESE,114,0.0,0.0,53,0.00,,,0.04,WeatherCatV1.10B1784,2013-08-27 21:27:00,
2013-08-27 17:32:00,85.5,67.5,29.79,ESE,114,0.0,0.0,55,0.00,,,0.04,WeatherCatV1.10B1784,2013-08-27 21:32:00,
2013-08-27 17:37:00,85.1,67.1,29.78,ESE,114,0.0,0.0,55,0.00,,,0.04,WeatherCatV1.10B1784,2013-08-27 21:37:00,
2013-08-27 17:43:00,84.9,67.9,29.79,ESE,114,0.0,0.0,57,0.00,,,0.04,WeatherCatV1.10B1784,2013-08-27 21:43:00,
2013-08-27 17:48:00,85.5,68.0,29.78,ESE,114,0.0,0.0,56,0.00,,,0.04,WeatherCatV1.10B1784,2013-08-27 21:48:00,
2013-08-27 17:53:00,85.6,66.5,29.78,ESE,114,0.0,0.0,53,0.00,,,0.04,WeatherCatV1.10B1784,2013-08-27 21:53:00,
2013-08-27 17:58:00,85.7,68.2,29.78,ESE,114,0.0,0.0,56,0.00,,,0.04,WeatherCatV1.10B1784,2013-08-27 21:58:00,
2013-08-27 18:03:00,85.7,67.6,29.78,ESE,114,0.0,0.0,55,0.00,,,0.04,WeatherCatV1.10B1784,2013-08-27 22:03:00,
2013-08-27 18:08:00,85.3,67.3,29.78,ESE,114,0.0,0.0,55,0.00,,,0.04,WeatherCatV1.10B1784,2013-08-27 22:08:00,
2013-08-27 18:13:00,84.9,68.9,29.78,ESE,114,0.0,0.0,59,0.00,,,0.04,WeatherCatV1.10B1784,2013-08-27 22:13:00,
2013-08-27 18:18:00,83.6,70.6,29.78,ESE,114,0.0,0.0,65,0.00,,,0.04,WeatherCatV1.10B1784,2013-08-27 22:18:00,
2013-08-27 18:23:00,82.9,70.3,29.78,ESE,114,0.0,0.0,66,0.00,,,0.04,WeatherCatV1.10B1784,2013-08-27 22:23:00,
2013-08-27 18:28:00,81.7,70.1,29.78,ESE,114,0.0,0.0,68,0.00,,,0.04,WeatherCatV1.10B1784,2013-08-27 22:28:00,
2013-08-27 18:33:00,80.3,70.0,29.78,ESE,114,0.0,0.0,71,0.00,,,0.04,WeatherCatV1.10B1784,2013-08-27 22:33:00,
2013-08-27 18:38:00,79.1,69.7,29.78,ESE,114,0.0,0.0,73,0.00,,,0.04,WeatherCatV1.10B1784,2013-08-27 22:38:00,
2013-08-27 18:43:00,78.4,70.6,29.78,ESE,114,0.0,0.0,77,0.00,,,0.04,WeatherCatV1.10B1784,2013-08-27 22:43:00,
2013-08-27 18:48:00,77.7,70.3,29.78,ESE,114,0.0,0.0,78,0.00,,,0.04,WeatherCatV1.10B1784,2013-08-27 22:48:00,
2013-08-27 18:53:00,77.0,70.0,29.79,ESE,114,0.0,0.0,79,0.00,,,0.04,WeatherCatV1.10B1784,2013-08-27 22:53:00,
2013-08-27 18:58:00,76.3,68.9,29.79,ESE,114,0.0,0.0,78,0.00,,,0.04,WeatherCatV1.10B1784,2013-08-27 22:58:00,
2013-08-27 19:03:00,75.9,69.3,29.79,ESE,114,0.0,4.0,80,0.00,,,0.04,WeatherCatV1.10B1784,2013-08-27 23:03:00,
2013-08-27 19:08:00,75.9,69.3,29.79,ESE,114,0.0,0.0,80,0.00,,,0.04,WeatherCatV1.10B1784,2013-08-27 23:08:00,
2013-08-27 19:13:00,75.6,69.3,29.79,ESE,114,0.0,0.0,81,0.00,,,0.04,WeatherCatV1.10B1784,2013-08-27 23:13:00,
2013-08-27 19:18:00,74.8,68.9,29.80,ESE,114,0.0,0.0,82,0.00,,,0.04,WeatherCatV1.10B1784,2013-08-27 23:18:00,
2013-08-27 19:23:00,74.2,68.7,29.80,ESE,114,0.0,0.0,83,0.00,,,0.04,WeatherCatV1.10B1784,2013-08-27 23:23:00,
2013-08-27 19:28:00,73.8,68.7,29.80,ESE,114,0.0,0.0,84,0.00,,,0.04,WeatherCatV1.10B1784,2013-08-27 23:28:00,
2013-08-27 19:33:00,73.6,68.5,29.80,ESE,114,0.0,0.0,84,0.00,,,0.04,WeatherCatV1.10B1784,2013-08-27 23:33:00,
2013-08-27 19:38:00,73.2,68.4,29.81,ESE,114,0.0,0.0,85,0.00,,,0.04,WeatherCatV1.10B1784,2013-08-27 23:38:00,
2013-08-27 19:43:00,72.7,68.3,29.80,ESE,114,0.0,0.0,86,0.00,,,0.04,WeatherCatV1.10B1784,2013-08-27 23:43:00,
2013-08-27 19:48:00,72.6,68.2,29.81,ESE,114,0.0,0.0,86,0.00,,,0.04,WeatherCatV1.10B1784,2013-08-27 23:48:00,
2013-08-27 19:53:00,72.4,68.0,29.81,ESE,114,0.0,0.0,86,0.00,,,0.04,WeatherCatV1.10B1784,2013-08-27 23:53:00,
2013-08-27 19:58:00,72.2,67.8,29.81,ESE,114,0.0,0.0,86,0.00,,,0.04,WeatherCatV1.10B1784,2013-08-27 23:58:00,
2013-08-27 20:03:00,72.0,67.6,29.81,ESE,114,0.0,0.0,86,0.00,,,0.04,WeatherCatV1.10B1784,2013-08-28 00:03:00,
2013-08-27 20:08:00,71.7,67.6,29.81,ESE,114,0.0,0.0,87,0.00,,,0.04,WeatherCatV1.10B1784,2013-08-28 00:08:00,
2013-08-27 20:13:00,71.4,67.3,29.82,ESE,114,0.0,0.0,87,0.00,,,0.04,WeatherCatV1.10B1784,2013-08-28 00:13:00,
2013-08-27 20:18:00,71.2,67.5,29.82,ESE,114,0.0,0.0,88,0.00,,,0.04,WeatherCatV1.10B1784,2013-08-28 00:18:00,
2013-08-27 20:23:00,71.0,67.3,29.82,ESE,114,0.0,0.0,88,0.00,,,0.04,WeatherCatV1.10B1784,2013-08-28 00:23:00,
2013-08-27 20:28:00,70.9,67.2,29.82,ESE,114,0.0,0.0,88,0.00,,,0.04,WeatherCatV1.10B1784,2013-08-28 00:28:00,
2013-08-27 20:33:00,70.8,67.1,29.83,ESE,114,0.0,0.0,88,0.00,,,0.04,WeatherCatV1.10B1784,2013-08-28 00:33:00,
2013-08-27 20:38:00,70.7,67.0,29.83,ESE,114,0.0,0.0,88,0.00,,,0.04,WeatherCatV1.10B1784,2013-08-28 00:38:00,
2013-08-27 20:43:00,70.5,67.1,29.83,ESE,114,0.0,0.0,89,0.00,,,0.04,WeatherCatV1.10B1784,2013-08-28 00:43:00,
2013-08-27 20:48:00,70.4,67.0,29.83,ESE,114,0.0,0.0,89,0.00,,,0.04,WeatherCatV1.10B1784,2013-08-28 00:48:00,
2013-08-27 20:53:00,70.4,67.0,29.83,ESE,114,0.0,0.0,89,0.00,,,0.04,WeatherCatV1.10B1784,2013-08-28 00:53:00,
2013-08-27 20:58:00,70.3,66.9,29.83,ESE,114,0.0,0.0,89,0.00,,,0.04,WeatherCatV1.10B1784,2013-08-28 00:58:00,
2013-08-27 21:03:00,70.3,66.9,29.83,ESE,114,0.0,0.0,89,0.00,,,0.04,WeatherCatV1.10B1784,2013-08-28 01:03:00,
2013-08-27 21:08:00,70.1,66.7,29.83,ESE,114,0.0,0.0,89,0.00,,,0.04,WeatherCatV1.10B1784,2013-08-28 01:08:00,
2013-08-27 21:13:00,69.9,66.5,29.83,ESE,114,0.0,0.0,89,0.00,,,0.04,WeatherCatV1.10B1784,2013-08-28 01:13:00,
2013-08-27 21:18:00,69.8,66.4,29.83,ESE,114,0.0,0.0,89,0.00,,,0.04,WeatherCatV1.10B1784,2013-08-28 01:18:00,
2013-08-27 21:23:00,69.7,66.3,29.84,ESE,114,0.0,0.0,89,0.00,,,0.04,WeatherCatV1.10B1784,2013-08-28 01:23:00,
2013-08-27 21:28:00,69.6,66.5,29.84,ESE,114,0.0,0.0,90,0.00,,,0.04,WeatherCatV1.10B1784,2013-08-28 01:28:00,
2013-08-27 21:33:00,69.7,66.6,29.84,ESE,114,0.0,0.0,90,0.00,,,0.04,WeatherCatV1.10B1784,2013-08-28 01:33:00,
2013-08-27 21:38:00,69.6,66.5,29.84,ESE,114,0.0,0.0,90,0.00,,,0.04,WeatherCatV1.10B1784,2013-08-28 01:38:00,
2013-08-27 21:43:00,69.6,66.5,29.84,ESE,114,0.0,0.0,90,0.00,,,0.04,WeatherCatV1.10B1784,2013-08-28 01:43:00,
2013-08-27 21:48:00,69.7,66.6,29.84,ESE,114,0.0,0.0,90,0.00,,,0.04,WeatherCatV1.10B1784,2013-08-28 01:48:00,
2013-08-27 21:53:00,69.8,66.7,29.84,ESE,114,0.0,0.0,90,0.00,,,0.04,WeatherCatV1.10B1784,2013-08-28 01:53:00,
2013-08-27 21:58:00,69.8,66.4,29.84,ESE,114,0.0,0.0,89,0.00,,,0.04,WeatherCatV1.10B1784,2013-08-28 01:58:00,
2013-08-27 22:03:00,69.9,66.5,29.84,ESE,114,0.0,1.0,89,0.00,,,0.04,WeatherCatV1.10B1784,2013-08-28 02:03:00,
2013-08-27 22:08:00,70.1,66.7,29.84,ESE,114,0.0,0.0,89,0.00,,,0.04,WeatherCatV1.10B1784,2013-08-28 02:08:00,
2013-08-27 22:13:00,70.2,66.5,29.84,ESE,114,0.0,0.0,88,0.00,,,0.04,WeatherCatV1.10B1784,2013-08-28 02:13:00,
2013-08-27 22:18:00,70.2,66.5,29.84,ESE,114,0.0,0.0,88,0.00,,,0.04,WeatherCatV1.10B1784,2013-08-28 02:18:00,
2013-08-27 22:23:00,70.2,66.5,29.84,ESE,114,0.0,0.0,88,0.00,,,0.04,WeatherCatV1.10B1784,2013-08-28 02:23:00,
2013-08-27 22:28:00,70.3,66.6,29.84,ESE,114,0.0,0.0,88,0.00,,,0.04,WeatherCatV1.10B1784,2013-08-28 02:28:00,
2013-08-27 22:33:00,70.4,66.7,29.84,ESE,114,0.0,0.0,88,0.00,,,0.04,WeatherCatV1.10B1784,2013-08-28 02:33:00,
2013-08-27 22:38:00,70.4,66.3,29.84,ESE,114,0.0,0.0,87,0.00,,,0.04,WeatherCatV1.10B1784,2013-08-28 02:38:00,
2013-08-27 22:43:00,70.4,66.3,29.85,ESE,114,0.0,0.0,87,0.00,,,0.04,WeatherCatV1.10B1784,2013-08-28 02:43:00,
2013-08-27 22:48:00,70.4,66.3,29.85,ESE,114,0.0,0.0,87,0.00,,,0.04,WeatherCatV1.10B1784,2013-08-28 02:48:00,
2013-08-27 22:53:00,70.4,66.3,29.85,ESE,114,0.0,0.0,87,0.00,,,0.04,WeatherCatV1.10B1784,2013-08-28 02:53:00,
2013-08-27 22:58:00,70.3,66.2,29.85,ESE,114,0.0,0.0,87,0.00,,,0.04,WeatherCatV1.10B1784,2013-08-28 02:58:00,
2013-08-27 23:03:00,70.2,66.1,29.85,ESE,114,0.0,0.0,87,0.00,,,0.04,WeatherCatV1.10B1784,2013-08-28 03:03:00,
2013-08-27 23:08:00,70.0,65.9,29.85,ESE,114,0.0,0.0,87,0.00,,,0.04,WeatherCatV1.10B1784,2013-08-28 03:08:00,
2013-08-27 23:13:00,69.7,66.0,29.85,ESE,117,0.0,3.0,88,0.00,,,0.04,WeatherCatV1.10B1784,2013-08-28 03:13:00,
2013-08-27 23:18:00,69.7,66.0,29.85,ESE,117,0.0,0.0,88,0.00,,,0.04,WeatherCatV1.10B1784,2013-08-28 03:18:00,
2013-08-27 23:23:00,69.6,65.9,29.85,ESE,117,0.0,0.0,88,0.00,,,0.04,WeatherCatV1.10B1784,2013-08-28 03:23:00,
2013-08-27 23:28:00,69.6,65.6,29.85,ESE,117,0.0,0.0,87,0.00,,,0.04,WeatherCatV1.10B1784,2013-08-28 03:28:00,
2013-08-27 23:33:00,69.6,65.6,29.85,ESE,117,0.0,0.0,87,0.00,,,0.04,WeatherCatV1.10B1784,2013-08-28 03:33:00,
2013-08-27 23:38:00,69.4,65.4,29.85,ESE,117,0.0,0.0,87,0.00,,,0.04,WeatherCatV1.10B1784,2013-08-28 03:38:00,
2013-08-27 23:43:00,69.1,65.1,29.85,ESE,119,1.0,3.0,87,0.00,,,0.04,WeatherCatV1.10B1784,2013-08-28 03:43:00,
2013-08-27 23:48:00,69.1,65.1,29.85,ESE,119,0.0,0.0,87,0.00,,,0.04,WeatherCatV1.10B1784,2013-08-28 03:48:00,
2013-08-27 23:53:00,69.1,65.1,29.84,ESE,119,0.0,0.0,87,0.00,,,0.04,WeatherCatV1.10B1784,2013-08-28 03:53:00,
2013-08-27 23:58:00,68.9,64.9,29.85,ESE,119,0.0,0.0,87,0.00,,,0.04,WeatherCatV1.10B1784,2013-08-28 03:58:00,